sensor_id;sensor_type;location;lat;lon;timestamp;pressure;altitude;pressure_sealevel;temperature;humidity
76311;BME280;65120;59.304;18.294;2023-06-10T00:02:13;102911.19;;;8.67;53.35
76311;BME280;65120;59.304;18.294;2023-06-10T00:04:39;102909.38;;;8.63;53.30
76311;BME280;65120;59.304;18.294;2023-06-10T00:07:07;102885.59;;;8.49;53.49
76311;BME280;65120;59.304;18.294;2023-06-10T00:09:34;102905.69;;;8.55;53.35
76311;BME280;65120;59.304;18.294;2023-06-10T00:12:04;102901.28;;;8.51;53.19
76311;BME280;65120;59.304;18.294;2023-06-10T00:14:32;102911.59;;;8.48;53.63
76311;BME280;65120;59.304;18.294;2023-06-10T00:16:59;102907.09;;;8.41;53.85
76311;BME280;65120;59.304;18.294;2023-06-10T00:19:26;102901.72;;;8.36;53.77
76311;BME280;65120;59.304;18.294;2023-06-10T00:21:55;102907.78;;;8.35;53.95
76311;BME280;65120;59.304;18.294;2023-06-10T00:24:22;102910.25;;;8.30;53.63
76311;BME280;65120;59.304;18.294;2023-06-10T00:26:49;102908.38;;;8.25;53.70
76311;BME280;65120;59.304;18.294;2023-06-10T00:29:17;102906.50;;;8.19;54.05
76311;BME280;65120;59.304;18.294;2023-06-10T00:31:45;102916.03;;;8.17;53.89
76311;BME280;65120;59.304;18.294;2023-06-10T00:34:12;102910.69;;;8.13;54.05
76311;BME280;65120;59.304;18.294;2023-06-10T00:36:39;102916.75;;;8.11;54.18
76311;BME280;65120;59.304;18.294;2023-06-10T00:39:06;102920.97;;;8.08;54.66
76311;BME280;65120;59.304;18.294;2023-06-10T00:41:32;102921.78;;;8.05;54.51
76311;BME280;65120;59.304;18.294;2023-06-10T00:44:00;102926.88;;;8.02;54.51
76311;BME280;65120;59.304;18.294;2023-06-10T00:46:29;102923.31;;;7.97;54.69
76311;BME280;65120;59.304;18.294;2023-06-10T00:48:57;102930.22;;;7.97;54.99
76311;BME280;65120;59.304;18.294;2023-06-10T00:51:25;102924.91;;;7.92;55.05
76311;BME280;65120;59.304;18.294;2023-06-10T00:53:53;102928.28;;;7.89;55.04
76311;BME280;65120;59.304;18.294;2023-06-10T00:56:20;102916.66;;;7.77;55.11
76311;BME280;65120;59.304;18.294;2023-06-10T00:58:48;102943.78;;;7.85;54.97
76311;BME280;65120;59.304;18.294;2023-06-10T01:01:15;102943.66;;;7.80;55.22
76311;BME280;65120;59.304;18.294;2023-06-10T01:03:44;102945.41;;;7.80;55.36
76311;BME280;65120;59.304;18.294;2023-06-10T01:06:20;102947.88;;;7.77;55.18
76311;BME280;65120;59.304;18.294;2023-06-10T01:08:56;102938.06;;;7.66;55.36
76311;BME280;65120;59.304;18.294;2023-06-10T01:11:29;102949.44;;;7.70;55.71
76311;BME280;65120;59.304;18.294;2023-06-10T01:13:59;102945.81;;;7.65;55.59
76311;BME280;65120;59.304;18.294;2023-06-10T01:16:27;102951.03;;;7.65;55.97
76311;BME280;65120;59.304;18.294;2023-06-10T01:18:55;102952.72;;;7.63;55.99
76311;BME280;65120;59.304;18.294;2023-06-10T01:21:24;102945.66;;;7.59;56.03
76311;BME280;65120;59.304;18.294;2023-06-10T01:23:52;102949.97;;;7.58;56.06
76311;BME280;65120;59.304;18.294;2023-06-10T01:26:26;102948.16;;;7.56;56.52
76311;BME280;65120;59.304;18.294;2023-06-10T01:28:58;102944.63;;;7.54;56.47
76311;BME280;65120;59.304;18.294;2023-06-10T01:31:31;102935.84;;;7.49;56.38
76311;BME280;65120;59.304;18.294;2023-06-10T01:34:07;102943.63;;;7.49;56.67
76311;BME280;65120;59.304;18.294;2023-06-10T01:36:38;102960.06;;;7.48;56.68
76311;BME280;65120;59.304;18.294;2023-06-10T01:39:08;102954.84;;;7.48;56.88
76311;BME280;65120;59.304;18.294;2023-06-10T01:41:35;102946.03;;;7.42;57.14
76311;BME280;65120;59.304;18.294;2023-06-10T01:44:03;102957.44;;;7.46;57.12
76311;BME280;65120;59.304;18.294;2023-06-10T01:46:30;102958.25;;;7.45;57.30
76311;BME280;65120;59.304;18.294;2023-06-10T01:48:56;102962.56;;;7.44;57.65
76311;BME280;65120;59.304;18.294;2023-06-10T01:51:23;102964.28;;;7.44;57.51
76311;BME280;65120;59.304;18.294;2023-06-10T01:53:52;102964.28;;;7.44;57.62
76311;BME280;65120;59.304;18.294;2023-06-10T01:56:19;102963.41;;;7.43;57.66
76311;BME280;65120;59.304;18.294;2023-06-10T01:58:46;102964.22;;;7.42;57.76
76311;BME280;65120;59.304;18.294;2023-06-10T02:01:13;102974.63;;;7.42;57.69
76311;BME280;65120;59.304;18.294;2023-06-10T02:03:40;102969.41;;;7.41;57.96
76311;BME280;65120;59.304;18.294;2023-06-10T02:06:07;102947.56;;;7.34;57.92
76311;BME280;65120;59.304;18.294;2023-06-10T02:08:34;102962.41;;;7.38;57.87
76311;BME280;65120;59.304;18.294;2023-06-10T02:11:02;102957.19;;;7.38;58.16
76311;BME280;65120;59.304;18.294;2023-06-10T02:13:29;102958.03;;;7.37;58.14
76311;BME280;65120;59.304;18.294;2023-06-10T02:15:56;102957.13;;;7.37;58.32
76311;BME280;65120;59.304;18.294;2023-06-10T02:18:23;102957.97;;;7.36;58.49
76311;BME280;65120;59.304;18.294;2023-06-10T02:20:52;102961.47;;;7.36;58.53
76311;BME280;65120;59.304;18.294;2023-06-10T02:23:19;102963.19;;;7.36;58.56
76311;BME280;65120;59.304;18.294;2023-06-10T02:25:46;102969.25;;;7.36;58.87
76311;BME280;65120;59.304;18.294;2023-06-10T02:28:15;102958.66;;;7.29;59.54
76311;BME280;65120;59.304;18.294;2023-06-10T02:30:42;102968.44;;;7.37;58.93
76311;BME280;65120;59.304;18.294;2023-06-10T02:33:09;102967.53;;;7.37;58.86
76311;BME280;65120;59.304;18.294;2023-06-10T02:35:36;102963.94;;;7.32;59.22
76311;BME280;65120;59.304;18.294;2023-06-10T02:38:03;102964.91;;;7.35;59.15
76311;BME280;65120;59.304;18.294;2023-06-10T02:40:31;102983.25;;;7.40;59.13
76311;BME280;65120;59.304;18.294;2023-06-10T02:42:58;102978.94;;;7.40;59.22
76311;BME280;65120;59.304;18.294;2023-06-10T02:45:26;102973.59;;;7.36;59.77
76311;BME280;65120;59.304;18.294;2023-06-10T02:47:53;102971.84;;;7.36;59.79
76311;BME280;65120;59.304;18.294;2023-06-10T02:50:20;102975.56;;;7.44;59.91
76311;BME280;65120;59.304;18.294;2023-06-10T02:52:48;102975.66;;;7.48;59.85
76311;BME280;65120;59.304;18.294;2023-06-10T02:55:15;102980.06;;;7.50;60.03
76311;BME280;65120;59.304;18.294;2023-06-10T02:57:42;102983.56;;;7.51;60.43
76311;BME280;65120;59.304;18.294;2023-06-10T03:00:10;102983.56;;;7.51;60.32
76311;BME280;65120;59.304;18.294;2023-06-10T03:02:41;102988.03;;;7.55;60.69
76311;BME280;65120;59.304;18.294;2023-06-10T03:05:08;102984.63;;;7.57;60.65
76311;BME280;65120;59.304;18.294;2023-06-10T03:07:36;102971.41;;;7.50;60.78
76311;BME280;65120;59.304;18.294;2023-06-10T03:10:04;102991.72;;;7.63;60.99
76311;BME280;65120;59.304;18.294;2023-06-10T03:12:31;102988.38;;;7.67;61.12
76311;BME280;65120;59.304;18.294;2023-06-10T03:14:58;102986.72;;;7.71;61.19
76311;BME280;65120;59.304;18.294;2023-06-10T03:17:25;102994.69;;;7.75;61.62
76311;BME280;65120;59.304;18.294;2023-06-10T03:19:53;102996.59;;;7.81;61.63
76311;BME280;65120;59.304;18.294;2023-06-10T03:22:21;103001.94;;;7.85;61.68
76311;BME280;65120;59.304;18.294;2023-06-10T03:24:48;102990.75;;;7.89;61.71
76311;BME280;65120;59.304;18.294;2023-06-10T03:27:18;102968.91;;;7.83;61.84
76311;BME280;65120;59.304;18.294;2023-06-10T03:29:45;102988.47;;;8.02;61.69
76311;BME280;65120;59.304;18.294;2023-06-10T03:32:12;102983.34;;;8.03;62.37
76311;BME280;65120;59.304;18.294;2023-06-10T03:34:40;102996.66;;;8.14;62.35
76311;BME280;65120;59.304;18.294;2023-06-10T03:37:09;102989.91;;;8.22;62.33
76311;BME280;65120;59.304;18.294;2023-06-10T03:39:36;102977.72;;;8.21;62.50
76311;BME280;65120;59.304;18.294;2023-06-10T03:42:03;102990.31;;;8.38;62.28
76311;BME280;65120;59.304;18.294;2023-06-10T03:44:30;102993.19;;;8.47;62.67
76311;BME280;65120;59.304;18.294;2023-06-10T03:46:57;102995.16;;;8.55;62.46
76311;BME280;65120;59.304;18.294;2023-06-10T03:49:25;102984.94;;;8.63;62.63
76311;BME280;65120;59.304;18.294;2023-06-10T03:51:54;102984.22;;;8.70;62.47
76311;BME280;65120;59.304;18.294;2023-06-10T03:54:22;102992.38;;;8.84;62.45
76311;BME280;65120;59.304;18.294;2023-06-10T03:56:49;103000.47;;;8.95;62.52
76311;BME280;65120;59.304;18.294;2023-06-10T03:59:17;102993.78;;;9.06;62.23
76311;BME280;65120;59.304;18.294;2023-06-10T04:01:44;102996.59;;;9.15;62.15
76311;BME280;65120;59.304;18.294;2023-06-10T04:04:13;102998.50;;;9.22;61.68
76311;BME280;65120;59.304;18.294;2023-06-10T04:06:41;102988.22;;;9.30;61.51
76311;BME280;65120;59.304;18.294;2023-06-10T04:09:09;102995.56;;;9.46;61.55
76311;BME280;65120;59.304;18.294;2023-06-10T04:11:38;103000.16;;;9.58;61.59
76311;BME280;65120;59.304;18.294;2023-06-10T04:14:05;102999.47;;;9.67;61.28
76311;BME280;65120;59.304;18.294;2023-06-10T04:16:32;102978.59;;;9.67;61.44
76311;BME280;65120;59.304;18.294;2023-06-10T04:18:59;103002.59;;;9.91;61.27
76311;BME280;65120;59.304;18.294;2023-06-10T04:21:26;103002.81;;;10.02;61.23
76311;BME280;65120;59.304;18.294;2023-06-10T04:23:53;102989.75;;;10.02;60.77
76311;BME280;65120;59.304;18.294;2023-06-10T04:26:20;103009.28;;;10.23;60.77
76311;BME280;65120;59.304;18.294;2023-06-10T04:28:48;103004.31;;;10.35;60.60
76311;BME280;65120;59.304;18.294;2023-06-10T04:31:15;102993.06;;;10.39;60.10
76311;BME280;65120;59.304;18.294;2023-06-10T04:33:42;103003.88;;;10.61;60.07
76311;BME280;65120;59.304;18.294;2023-06-10T04:36:09;103005.00;;;10.73;59.38
76311;BME280;65120;59.304;18.294;2023-06-10T04:38:36;103000.88;;;10.88;59.76
76311;BME280;65120;59.304;18.294;2023-06-10T04:41:03;103001.91;;;11.00;59.23
76311;BME280;65120;59.304;18.294;2023-06-10T04:43:30;102979.22;;;10.96;58.94
76311;BME280;65120;59.304;18.294;2023-06-10T04:45:59;102981.16;;;11.11;59.42
76311;BME280;65120;59.304;18.294;2023-06-10T04:48:26;102991.03;;;11.32;58.75
76311;BME280;65120;59.304;18.294;2023-06-10T04:50:52;103015.00;;;11.61;58.20
76311;BME280;65120;59.304;18.294;2023-06-10T04:53:20;103005.50;;;11.68;58.18
76311;BME280;65120;59.304;18.294;2023-06-10T04:55:47;103006.53;;;11.82;57.57
76311;BME280;65120;59.304;18.294;2023-06-10T04:58:14;103015.50;;;12.00;57.35
76311;BME280;65120;59.304;18.294;2023-06-10T05:00:41;103018.28;;;12.15;56.98
76311;BME280;65120;59.304;18.294;2023-06-10T05:03:10;103009.69;;;12.28;57.18
76311;BME280;65120;59.304;18.294;2023-06-10T05:05:37;102997.47;;;12.29;56.52
76311;BME280;65120;59.304;18.294;2023-06-10T05:08:04;103016.03;;;12.52;56.45
76311;BME280;65120;59.304;18.294;2023-06-10T05:10:31;103018.81;;;12.69;55.92
76311;BME280;65120;59.304;18.294;2023-06-10T05:12:59;103009.34;;;12.85;55.36
76311;BME280;65120;59.304;18.294;2023-06-10T05:15:26;103009.44;;;13.00;55.24
76311;BME280;65120;59.304;18.294;2023-06-10T05:17:53;102987.59;;;13.01;54.72
76311;BME280;65120;59.304;18.294;2023-06-10T05:20:22;103012.25;;;13.26;54.01
76311;BME280;65120;59.304;18.294;2023-06-10T05:22:50;103011.53;;;13.44;53.85
76311;BME280;65120;59.304;18.294;2023-06-10T05:25:17;103008.94;;;13.56;53.78
76311;BME280;65120;59.304;18.294;2023-06-10T05:27:45;103009.88;;;13.70;53.25
76311;BME280;65120;59.304;18.294;2023-06-10T05:30:12;103014.31;;;13.84;52.94
76311;BME280;65120;59.304;18.294;2023-06-10T05:32:39;103001.19;;;13.88;52.57
76311;BME280;65120;59.304;18.294;2023-06-10T05:35:06;103009.13;;;14.04;52.54
76311;BME280;65120;59.304;18.294;2023-06-10T05:37:35;103008.28;;;14.15;51.82
76311;BME280;65120;59.304;18.294;2023-06-10T05:40:03;103008.31;;;14.29;51.40
76311;BME280;65120;59.304;18.294;2023-06-10T05:42:31;103017.97;;;14.44;50.87
76311;BME280;65120;59.304;18.294;2023-06-10T05:44:58;103014.53;;;14.57;50.38
76311;BME280;65120;59.304;18.294;2023-06-10T05:47:25;103016.28;;;14.69;50.67
76311;BME280;65120;59.304;18.294;2023-06-10T05:49:52;102991.72;;;14.69;50.34
76311;BME280;65120;59.304;18.294;2023-06-10T05:52:19;102970.66;;;14.62;50.25
76311;BME280;65120;59.304;18.294;2023-06-10T05:54:48;102989.97;;;14.78;49.93
76311;BME280;65120;59.304;18.294;2023-06-10T05:57:15;103020.66;;;15.01;49.56
76311;BME280;65120;59.304;18.294;2023-06-10T05:59:42;103018.00;;;15.09;49.49
76311;BME280;65120;59.304;18.294;2023-06-10T06:02:09;103020.63;;;15.15;49.17
76311;BME280;65120;59.304;18.294;2023-06-10T06:04:36;103016.25;;;15.20;49.24
76311;BME280;65120;59.304;18.294;2023-06-10T06:07:04;103013.59;;;15.26;48.55
76311;BME280;65120;59.304;18.294;2023-06-10T06:09:31;103009.16;;;15.33;48.55
76311;BME280;65120;59.304;18.294;2023-06-10T06:11:59;103017.06;;;15.37;47.98
76311;BME280;65120;59.304;18.294;2023-06-10T06:14:26;102989.00;;;15.27;47.87
76311;BME280;65120;59.304;18.294;2023-06-10T06:16:53;103020.56;;;15.45;48.09
76311;BME280;65120;59.304;18.294;2023-06-10T06:19:20;103020.56;;;15.48;47.70
76311;BME280;65120;59.304;18.294;2023-06-10T06:21:47;103020.56;;;15.48;47.63
76311;BME280;65120;59.304;18.294;2023-06-10T06:24:15;103017.91;;;15.51;47.59
76311;BME280;65120;59.304;18.294;2023-06-10T06:26:42;103024.03;;;15.58;47.41
76311;BME280;65120;59.304;18.294;2023-06-10T06:29:10;103023.13;;;15.61;47.50
76311;BME280;65120;59.304;18.294;2023-06-10T06:31:37;103021.38;;;15.63;47.37
76311;BME280;65120;59.304;18.294;2023-06-10T06:34:04;103028.38;;;15.62;46.93
76311;BME280;65120;59.304;18.294;2023-06-10T06:36:31;103019.63;;;15.59;47.34
76311;BME280;65120;59.304;18.294;2023-06-10T06:38:58;103002.97;;;15.47;46.85
76311;BME280;65120;59.304;18.294;2023-06-10T06:41:26;103037.19;;;15.69;46.63
76311;BME280;65120;59.304;18.294;2023-06-10T06:43:53;103031.91;;;15.72;46.72
76311;BME280;65120;59.304;18.294;2023-06-10T06:46:22;103032.75;;;15.80;46.80
76311;BME280;65120;59.304;18.294;2023-06-10T06:48:49;103040.63;;;15.85;46.71
76311;BME280;65120;59.304;18.294;2023-06-10T06:51:16;103037.97;;;15.89;46.24
76311;BME280;65120;59.304;18.294;2023-06-10T06:53:43;103042.34;;;16.00;45.39
76311;BME280;65120;59.304;18.294;2023-06-10T06:56:11;103043.16;;;16.09;45.73
76311;BME280;65120;59.304;18.294;2023-06-10T06:58:38;103046.63;;;16.21;45.62
76311;BME280;65120;59.304;18.294;2023-06-10T07:01:05;103027.25;;;16.26;44.67
76311;BME280;65120;59.304;18.294;2023-06-10T07:03:33;103042.06;;;16.46;44.83
76311;BME280;65120;59.304;18.294;2023-06-10T07:06:00;103050.78;;;16.57;44.50
76311;BME280;65120;59.304;18.294;2023-06-10T07:08:27;103048.06;;;16.66;44.38
76311;BME280;65120;59.304;18.294;2023-06-10T07:10:54;103045.38;;;16.72;44.72
76311;BME280;65120;59.304;18.294;2023-06-10T07:13:21;103052.31;;;16.89;43.71
76311;BME280;65120;59.304;18.294;2023-06-10T07:15:48;103042.56;;;16.95;44.44
76311;BME280;65120;59.304;18.294;2023-06-10T07:18:15;103042.50;;;17.03;44.44
76311;BME280;65120;59.304;18.294;2023-06-10T07:20:44;103041.56;;;17.10;44.11
76311;BME280;65120;59.304;18.294;2023-06-10T07:23:11;103023.97;;;17.07;43.63
76311;BME280;65120;59.304;18.294;2023-06-10T07:25:38;103018.63;;;17.15;43.40
76311;BME280;65120;59.304;18.294;2023-06-10T07:28:05;103043.03;;;17.39;43.37
76311;BME280;65120;59.304;18.294;2023-06-10T07:30:38;103036.78;;;17.46;43.32
76311;BME280;65120;59.304;18.294;2023-06-10T07:33:05;103039.28;;;17.58;42.66
76311;BME280;65120;59.304;18.294;2023-06-10T07:35:36;103042.63;;;17.72;42.08
76311;BME280;65120;59.304;18.294;2023-06-10T07:38:05;103040.69;;;17.91;41.82
76311;BME280;65120;59.304;18.294;2023-06-10T07:40:32;103042.22;;;18.06;41.44
76311;BME280;65120;59.304;18.294;2023-06-10T07:42:59;103026.31;;;18.09;41.24
76311;BME280;65120;59.304;18.294;2023-06-10T07:45:25;103037.47;;;18.33;41.21
76311;BME280;65120;59.304;18.294;2023-06-10T07:47:53;103043.44;;;18.47;40.86
76311;BME280;65120;59.304;18.294;2023-06-10T07:50:21;103040.59;;;18.58;40.38
76311;BME280;65120;59.304;18.294;2023-06-10T07:52:48;103042.19;;;18.68;39.68
76311;BME280;65120;59.304;18.294;2023-06-10T07:55:16;103044.72;;;18.79;39.21
76311;BME280;65120;59.304;18.294;2023-06-10T07:57:43;103013.94;;;18.69;38.92
76311;BME280;65120;59.304;18.294;2023-06-10T08:00:11;103041.78;;;18.94;39.38
76311;BME280;65120;59.304;18.294;2023-06-10T08:02:38;103031.19;;;18.94;38.38
76311;BME280;65120;59.304;18.294;2023-06-10T08:05:06;103026.75;;;18.96;37.99
76311;BME280;65120;59.304;18.294;2023-06-10T08:07:33;103046.78;;;19.11;37.93
76311;BME280;65120;59.304;18.294;2023-06-10T08:10:00;103009.09;;;18.95;38.03
76311;BME280;65120;59.304;18.294;2023-06-10T08:12:28;103045.66;;;19.24;37.42
76311;BME280;65120;59.304;18.294;2023-06-10T08:14:55;103036.78;;;19.27;36.59
76311;BME280;65120;59.304;18.294;2023-06-10T08:17:22;103041.97;;;19.33;36.46
76311;BME280;65120;59.304;18.294;2023-06-10T08:19:50;103038.47;;;19.31;35.82
76311;BME280;65120;59.304;18.294;2023-06-10T08:22:17;103045.41;;;19.38;36.17
76311;BME280;65120;59.304;18.294;2023-06-10T08:24:44;103024.34;;;19.30;35.52
76311;BME280;65120;59.304;18.294;2023-06-10T08:27:11;103046.09;;;19.48;35.54
76311;BME280;65120;59.304;18.294;2023-06-10T08:29:39;103041.66;;;19.48;34.65
76311;BME280;65120;59.304;18.294;2023-06-10T08:32:07;103049.47;;;19.54;34.72
76311;BME280;65120;59.304;18.294;2023-06-10T08:34:34;103013.59;;;19.38;34.97
76311;BME280;65120;59.304;18.294;2023-06-10T08:37:02;103036.28;;;19.53;34.59
76311;BME280;65120;59.304;18.294;2023-06-10T08:39:29;103044.06;;;19.61;33.85
76311;BME280;65120;59.304;18.294;2023-06-10T08:42:04;103002.09;;;19.39;34.04
76311;BME280;65120;59.304;18.294;2023-06-10T08:44:36;103025.56;;;19.58;33.81
76311;BME280;65120;59.304;18.294;2023-06-10T08:47:12;103016.84;;;19.52;33.35
76311;BME280;65120;59.304;18.294;2023-06-10T08:49:43;103042.16;;;19.69;33.11
76311;BME280;65120;59.304;18.294;2023-06-10T08:52:13;103046.50;;;19.73;33.70
76311;BME280;65120;59.304;18.294;2023-06-10T08:54:42;103051.78;;;19.74;33.61
76311;BME280;65120;59.304;18.294;2023-06-10T08:57:10;103052.63;;;19.76;33.62
76311;BME280;65120;59.304;18.294;2023-06-10T08:59:38;103036.69;;;19.78;33.38
76311;BME280;65120;59.304;18.294;2023-06-10T09:02:08;103044.59;;;19.80;33.78
76311;BME280;65120;59.304;18.294;2023-06-10T09:04:36;103041.06;;;19.79;33.90
76311;BME280;65120;59.304;18.294;2023-06-10T09:07:04;103031.47;;;19.73;34.09
76311;BME280;65120;59.304;18.294;2023-06-10T09:09:32;103010.44;;;19.63;33.68
76311;BME280;65120;59.304;18.294;2023-06-10T09:12:00;103033.06;;;19.81;33.92
76311;BME280;65120;59.304;18.294;2023-06-10T09:14:27;103035.63;;;19.87;33.60
76311;BME280;65120;59.304;18.294;2023-06-10T09:16:54;103033.75;;;19.90;34.38
76311;BME280;65120;59.304;18.294;2023-06-10T09:19:25;103035.50;;;19.91;33.91
76311;BME280;65120;59.304;18.294;2023-06-10T09:21:52;103036.28;;;19.95;34.70
76311;BME280;65120;59.304;18.294;2023-06-10T09:24:19;103029.34;;;19.89;34.55
76311;BME280;65120;59.304;18.294;2023-06-10T09:26:47;103040.66;;;19.97;34.92
76311;BME280;65120;59.304;18.294;2023-06-10T09:29:16;103014.47;;;19.84;35.65
76311;BME280;65120;59.304;18.294;2023-06-10T09:31:44;103036.28;;;19.96;36.26
76311;BME280;65120;59.304;18.294;2023-06-10T09:34:12;103038.00;;;19.97;35.56
76311;BME280;65120;59.304;18.294;2023-06-10T09:36:41;103001.38;;;19.76;36.11
76311;BME280;65120;59.304;18.294;2023-06-10T09:39:14;103039.72;;;20.00;36.18
76311;BME280;65120;59.304;18.294;2023-06-10T09:41:43;103008.25;;;19.85;36.26
76311;BME280;65120;59.304;18.294;2023-06-10T09:44:12;103039.66;;;20.03;36.97
76311;BME280;65120;59.304;18.294;2023-06-10T09:46:41;103044.91;;;20.06;37.13
76311;BME280;65120;59.304;18.294;2023-06-10T09:49:08;103038.66;;;20.09;36.23
76311;BME280;65120;59.304;18.294;2023-06-10T09:51:35;103038.56;;;20.12;36.62
76311;BME280;65120;59.304;18.294;2023-06-10T09:54:04;103013.19;;;20.00;36.28
76311;BME280;65120;59.304;18.294;2023-06-10T09:56:34;103016.59;;;20.07;36.59
76311;BME280;65120;59.304;18.294;2023-06-10T09:59:02;103016.53;;;20.10;36.25
76311;BME280;65120;59.304;18.294;2023-06-10T10:01:31;103038.41;;;20.21;36.73
76311;BME280;65120;59.304;18.294;2023-06-10T10:03:59;103035.69;;;20.22;36.12
76311;BME280;65120;59.304;18.294;2023-06-10T10:06:26;103036.56;;;20.23;35.95
76311;BME280;65120;59.304;18.294;2023-06-10T10:08:54;103043.78;;;20.16;36.04
76311;BME280;65120;59.304;18.294;2023-06-10T10:11:23;103043.00;;;20.13;36.27
76311;BME280;65120;59.304;18.294;2023-06-10T10:13:52;103036.00;;;20.09;36.46
76311;BME280;65120;59.304;18.294;2023-06-10T10:16:20;103022.09;;;19.97;36.49
76311;BME280;65120;59.304;18.294;2023-06-10T10:18:52;103035.19;;;20.07;36.21
76311;BME280;65120;59.304;18.294;2023-06-10T10:21:22;103040.41;;;20.10;36.04
76311;BME280;65120;59.304;18.294;2023-06-10T10:23:53;103042.06;;;20.14;35.38
76311;BME280;65120;59.304;18.294;2023-06-10T10:26:26;103040.28;;;20.16;35.17
76311;BME280;65120;59.304;18.294;2023-06-10T10:29:05;103040.19;;;20.19;35.28
76311;BME280;65120;59.304;18.294;2023-06-10T10:31:35;103029.59;;;20.19;34.82
76311;BME280;65120;59.304;18.294;2023-06-10T10:34:06;103026.94;;;20.19;34.63
76311;BME280;65120;59.304;18.294;2023-06-10T10:36:34;103034.03;;;20.18;34.18
76311;BME280;65120;59.304;18.294;2023-06-10T10:39:04;103029.59;;;20.19;34.15
76311;BME280;65120;59.304;18.294;2023-06-10T10:41:33;103028.66;;;20.20;34.09
76311;BME280;65120;59.304;18.294;2023-06-10T10:44:01;103027.81;;;20.19;34.25
76311;BME280;65120;59.304;18.294;2023-06-10T10:46:30;103026.00;;;20.20;34.24
76311;BME280;65120;59.304;18.294;2023-06-10T10:49:09;103034.91;;;20.19;33.66
76311;BME280;65120;59.304;18.294;2023-06-10T10:51:37;103032.25;;;20.19;33.71
76311;BME280;65120;59.304;18.294;2023-06-10T10:54:10;103027.78;;;20.21;33.76
76311;BME280;65120;59.304;18.294;2023-06-10T10:56:39;103032.16;;;20.22;32.82
76311;BME280;65120;59.304;18.294;2023-06-10T10:59:06;103029.59;;;20.19;32.74
76311;BME280;65120;59.304;18.294;2023-06-10T11:01:41;103035.66;;;20.24;32.53
76311;BME280;65120;59.304;18.294;2023-06-10T11:04:11;103038.41;;;20.21;32.72
76311;BME280;65120;59.304;18.294;2023-06-10T11:06:38;103029.59;;;20.19;32.26
76311;BME280;65120;59.304;18.294;2023-06-10T11:09:26;103033.19;;;20.16;32.42
76311;BME280;65120;59.304;18.294;2023-06-10T11:11:57;103032.31;;;20.16;32.18
76311;BME280;65120;59.304;18.294;2023-06-10T11:14:29;103017.34;;;20.12;31.91
76311;BME280;65120;59.304;18.294;2023-06-10T11:16:57;103032.25;;;20.19;32.02
76311;BME280;65120;59.304;18.294;2023-06-10T11:19:35;103034.84;;;20.20;32.16
76311;BME280;65120;59.304;18.294;2023-06-10T11:22:05;103021.63;;;20.19;31.99
76311;BME280;65120;59.304;18.294;2023-06-10T11:24:32;103030.44;;;20.21;32.28
76311;BME280;65120;59.304;18.294;2023-06-10T11:27:21;103027.78;;;20.21;32.36
76311;BME280;65120;59.304;18.294;2023-06-10T11:29:57;103019.06;;;20.14;32.04
76311;BME280;65120;59.304;18.294;2023-06-10T11:32:25;103033.25;;;20.13;32.46
76311;BME280;65120;59.304;18.294;2023-06-10T11:34:55;103004.53;;;19.92;31.76
76311;BME280;65120;59.304;18.294;2023-06-10T11:37:23;102976.63;;;19.75;32.06
76311;BME280;65120;59.304;18.294;2023-06-10T11:39:52;103033.41;;;20.06;31.91
76311;BME280;65120;59.304;18.294;2023-06-10T11:42:21;103027.25;;;20.05;31.59
76311;BME280;65120;59.304;18.294;2023-06-10T11:44:49;103016.84;;;19.96;31.43
76311;BME280;65120;59.304;18.294;2023-06-10T11:47:16;103026.38;;;20.05;31.54
76311;BME280;65120;59.304;18.294;2023-06-10T11:49:43;103026.38;;;20.05;31.63
76311;BME280;65120;59.304;18.294;2023-06-10T11:52:10;103023.72;;;20.05;31.65
76311;BME280;65120;59.304;18.294;2023-06-10T11:54:38;103022.00;;;20.04;31.56
76311;BME280;65120;59.304;18.294;2023-06-10T11:57:05;103019.34;;;20.02;31.28
76311;BME280;65120;59.304;18.294;2023-06-10T11:59:35;103024.69;;;20.00;30.88
76311;BME280;65120;59.304;18.294;2023-06-10T12:02:02;103020.34;;;19.98;30.62
76311;BME280;65120;59.304;18.294;2023-06-10T12:04:29;103019.44;;;19.97;30.70
76311;BME280;65120;59.304;18.294;2023-06-10T12:06:56;103020.38;;;19.96;30.18
76311;BME280;65120;59.304;18.294;2023-06-10T12:09:24;103017.72;;;19.95;30.22
76311;BME280;65120;59.304;18.294;2023-06-10T12:11:52;103018.72;;;19.91;30.01
76311;BME280;65120;59.304;18.294;2023-06-10T12:14:52;103023.16;;;19.90;30.06
76311;BME280;65120;59.304;18.294;2023-06-10T12:17:23;103003.94;;;19.79;29.65
76311;BME280;65120;59.304;18.294;2023-06-10T12:19:51;103017.91;;;19.87;30.06
76311;BME280;65120;59.304;18.294;2023-06-10T12:22:18;103019.72;;;19.85;29.37
76311;BME280;65120;59.304;18.294;2023-06-10T12:24:56;103021.53;;;19.83;29.12
76311;BME280;65120;59.304;18.294;2023-06-10T12:27:25;103018.06;;;19.81;28.68
76311;BME280;65120;59.304;18.294;2023-06-10T12:29:55;102997.91;;;19.72;28.62
76311;BME280;65120;59.304;18.294;2023-06-10T12:32:35;103012.81;;;19.78;28.95
76311;BME280;65120;59.304;18.294;2023-06-10T12:35:03;103015.50;;;19.75;29.04
76311;BME280;65120;59.304;18.294;2023-06-10T12:37:30;103003.25;;;19.69;28.91
76311;BME280;65120;59.304;18.294;2023-06-10T12:40:00;103001.59;;;19.65;28.98
76311;BME280;65120;59.304;18.294;2023-06-10T12:42:29;103014.75;;;19.70;29.33
76311;BME280;65120;59.304;18.294;2023-06-10T12:44:58;103010.34;;;19.69;28.68
76311;BME280;65120;59.304;18.294;2023-06-10T12:47:30;103009.53;;;19.65;28.83
76311;BME280;65120;59.304;18.294;2023-06-10T12:49:58;103008.66;;;19.63;28.40